sensor_id;sensor_type;location;lat;lon;timestamp;P1;durP1;ratioP1;P2;durP2;ratioP2
76117;SDS011;64851;50.232;20.364;2024-02-23T00:00:00;4.20;;;1.60;;
76117;SDS011;64851;50.232;20.364;2024-02-23T00:03:00;4.20;;;1.70;;
76117;SDS011;64851;50.232;20.364;2024-02-23T00:05:57;3.80;;;1.60;;
76117;SDS011;64851;50.232;20.364;2024-02-23T00:08:52;3.50;;;1.50;;
76117;SDS011;64851;50.232;20.364;2024-02-23T00:11:39;3.10;;;1.60;;
76117;SDS011;64851;50.232;20.364;2024-02-23T00:14:22;2.90;;;0.90;;
76117;SDS011;64851;50.232;20.364;2024-02-23T00:17:03;3.30;;;1.60;;
76117;SDS011;64851;50.232;20.364;2024-02-23T00:19:52;2.90;;;1.40;;
76117;SDS011;64851;50.232;20.364;2024-02-23T00:22:34;3.40;;;1.50;;
76117;SDS011;64851;50.232;20.364;2024-02-23T00:25:16;3.10;;;1.40;;
76117;SDS011;64851;50.232;20.364;2024-02-23T00:27:57;3.30;;;1.40;;
76117;SDS011;64851;50.232;20.364;2024-02-23T00:30:39;3.60;;;1.80;;
76117;SDS011;64851;50.232;20.364;2024-02-23T00:33:20;4.10;;;1.80;;
76117;SDS011;64851;50.232;20.364;2024-02-23T00:36:09;3.50;;;1.30;;
76117;SDS011;64851;50.232;20.364;2024-02-23T00:38:44;2.90;;;1.50;;
76117;SDS011;64851;50.232;20.364;2024-02-23T00:41:33;5.00;;;2.00;;
76117;SDS011;64851;50.232;20.364;2024-02-23T00:44:10;4.20;;;1.70;;
76117;SDS011;64851;50.232;20.364;2024-02-23T00:46:59;3.90;;;1.70;;
76117;SDS011;64851;50.232;20.364;2024-02-23T00:49:36;3.90;;;1.50;;
76117;SDS011;64851;50.232;20.364;2024-02-23T00:52:25;3.00;;;1.10;;
76117;SDS011;64851;50.232;20.364;2024-02-23T00:55:00;4.00;;;1.40;;
76117;SDS011;64851;50.232;20.364;2024-02-23T00:57:49;3.10;;;1.20;;
76117;SDS011;64851;50.232;20.364;2024-02-23T01:00:24;3.00;;;1.30;;
76117;SDS011;64851;50.232;20.364;2024-02-23T01:03:12;3.60;;;1.30;;
76117;SDS011;64851;50.232;20.364;2024-02-23T01:05:47;4.00;;;1.30;;
76117;SDS011;64851;50.232;20.364;2024-02-23T01:08:35;3.70;;;1.40;;
76117;SDS011;64851;50.232;20.364;2024-02-23T01:11:17;6.10;;;1.80;;
76117;SDS011;64851;50.232;20.364;2024-02-23T01:13:59;3.70;;;1.60;;
76117;SDS011;64851;50.232;20.364;2024-02-23T01:16:40;3.60;;;1.50;;
76117;SDS011;64851;50.232;20.364;2024-02-23T01:19:22;3.70;;;1.60;;
76117;SDS011;64851;50.232;20.364;2024-02-23T01:22:04;4.00;;;1.40;;
76117;SDS011;64851;50.232;20.364;2024-02-23T01:24:52;2.30;;;1.20;;
76117;SDS011;64851;50.232;20.364;2024-02-23T01:27:47;2.80;;;1.20;;
76117;SDS011;64851;50.232;20.364;2024-02-23T01:30:22;2.50;;;0.80;;
76117;SDS011;64851;50.232;20.364;2024-02-23T01:33:10;4.30;;;1.60;;
76117;SDS011;64851;50.232;20.364;2024-02-23T01:35:45;3.10;;;1.00;;
76117;SDS011;64851;50.232;20.364;2024-02-23T01:38:40;3.30;;;1.20;;
76117;SDS011;64851;50.232;20.364;2024-02-23T01:41:17;6.10;;;1.30;;
76117;SDS011;64851;50.232;20.364;2024-02-23T01:44:05;3.50;;;1.10;;
76117;SDS011;64851;50.232;20.364;2024-02-23T01:46:40;3.00;;;1.40;;
76117;SDS011;64851;50.232;20.364;2024-02-23T01:49:35;1.30;;;0.60;;
76117;SDS011;64851;50.232;20.364;2024-02-23T01:52:32;3.00;;;1.00;;
76117;SDS011;64851;50.232;20.364;2024-02-23T01:55:07;2.70;;;0.80;;
76117;SDS011;64851;50.232;20.364;2024-02-23T01:57:55;2.00;;;0.80;;
76117;SDS011;64851;50.232;20.364;2024-02-23T02:00:35;2.30;;;0.90;;
76117;SDS011;64851;50.232;20.364;2024-02-23T02:03:23;2.70;;;0.80;;
76117;SDS011;64851;50.232;20.364;2024-02-23T02:05:58;3.40;;;1.10;;
76117;SDS011;64851;50.232;20.364;2024-02-23T02:08:53;2.80;;;0.90;;
76117;SDS011;64851;50.232;20.364;2024-02-23T02:11:48;2.60;;;1.00;;
76117;SDS011;64851;50.232;20.364;2024-02-23T02:14:24;3.00;;;1.00;;
76117;SDS011;64851;50.232;20.364;2024-02-23T02:17:14;3.70;;;1.10;;
76117;SDS011;64851;50.232;20.364;2024-02-23T02:19:50;2.70;;;1.00;;
76117;SDS011;64851;50.232;20.364;2024-02-23T02:22:45;2.50;;;0.90;;
76117;SDS011;64851;50.232;20.364;2024-02-23T02:25:20;2.00;;;0.70;;
76117;SDS011;64851;50.232;20.364;2024-02-23T02:28:15;3.20;;;0.70;;
76117;SDS011;64851;50.232;20.364;2024-02-23T02:31:10;2.10;;;0.70;;
76117;SDS011;64851;50.232;20.364;2024-02-23T02:34:05;2.00;;;0.70;;
76117;SDS011;64851;50.232;20.364;2024-02-23T02:36:40;2.70;;;0.90;;
76117;SDS011;64851;50.232;20.364;2024-02-23T02:39:28;3.90;;;1.10;;
76117;SDS011;64851;50.232;20.364;2024-02-23T02:42:03;1.90;;;0.60;;
76117;SDS011;64851;50.232;20.364;2024-02-23T02:44:51;2.10;;;0.70;;
76117;SDS011;64851;50.232;20.364;2024-02-23T02:47:26;1.80;;;0.50;;
76117;SDS011;64851;50.232;20.364;2024-02-23T02:50:14;1.90;;;0.70;;
76117;SDS011;64851;50.232;20.364;2024-02-23T02:52:49;2.40;;;1.10;;
76117;SDS011;64851;50.232;20.364;2024-02-23T02:55:44;3.20;;;1.10;;
76117;SDS011;64851;50.232;20.364;2024-02-23T02:58:39;3.40;;;1.50;;
76117;SDS011;64851;50.232;20.364;2024-02-23T03:01:14;3.50;;;1.20;;
76117;SDS011;64851;50.232;20.364;2024-02-23T03:04:02;2.50;;;1.20;;
76117;SDS011;64851;50.232;20.364;2024-02-23T03:06:37;2.70;;;1.10;;
76117;SDS011;64851;50.232;20.364;2024-02-23T03:09:25;2.90;;;0.70;;
76117;SDS011;64851;50.232;20.364;2024-02-23T03:12:00;1.80;;;0.60;;
76117;SDS011;64851;50.232;20.364;2024-02-23T03:14:48;1.80;;;0.50;;
76117;SDS011;64851;50.232;20.364;2024-02-23T03:17:30;1.90;;;0.70;;
76117;SDS011;64851;50.232;20.364;2024-02-23T03:20:12;2.20;;;0.70;;
76117;SDS011;64851;50.232;20.364;2024-02-23T03:22:53;2.20;;;0.80;;
76117;SDS011;64851;50.232;20.364;2024-02-23T03:25:37;1.90;;;0.50;;
76117;SDS011;64851;50.232;20.364;2024-02-23T03:28:18;1.40;;;0.40;;
76117;SDS011;64851;50.232;20.364;2024-02-23T03:31:02;1.70;;;0.60;;
76117;SDS011;64851;50.232;20.364;2024-02-23T03:33:43;1.90;;;0.90;;
76117;SDS011;64851;50.232;20.364;2024-02-23T03:36:32;2.50;;;0.80;;
76117;SDS011;64851;50.232;20.364;2024-02-23T03:39:06;1.60;;;0.50;;
76117;SDS011;64851;50.232;20.364;2024-02-23T03:41:54;1.70;;;0.60;;
76117;SDS011;64851;50.232;20.364;2024-02-23T03:44:28;1.90;;;0.40;;
76117;SDS011;64851;50.232;20.364;2024-02-23T03:47:16;1.60;;;0.40;;
76117;SDS011;64851;50.232;20.364;2024-02-23T03:49:57;3.20;;;0.70;;
76117;SDS011;64851;50.232;20.364;2024-02-23T03:52:39;2.50;;;0.70;;
76117;SDS011;64851;50.232;20.364;2024-02-23T03:55:20;2.00;;;0.60;;
76117;SDS011;64851;50.232;20.364;2024-02-23T03:58:02;1.90;;;0.60;;
76117;SDS011;64851;50.232;20.364;2024-02-23T04:00:43;1.50;;;0.30;;
76117;SDS011;64851;50.232;20.364;2024-02-23T04:03:24;1.20;;;0.40;;
76117;SDS011;64851;50.232;20.364;2024-02-23T04:06:05;2.60;;;0.80;;
76117;SDS011;64851;50.232;20.364;2024-02-23T04:08:53;1.50;;;0.40;;
76117;SDS011;64851;50.232;20.364;2024-02-23T04:11:28;2.00;;;1.00;;
76117;SDS011;64851;50.232;20.364;2024-02-23T04:14:17;1.70;;;0.50;;
76117;SDS011;64851;50.232;20.364;2024-02-23T04:16:58;2.40;;;0.70;;
76117;SDS011;64851;50.232;20.364;2024-02-23T04:19:40;2.10;;;0.90;;
76117;SDS011;64851;50.232;20.364;2024-02-23T04:22:22;2.40;;;0.80;;
76117;SDS011;64851;50.232;20.364;2024-02-23T04:25:10;2.90;;;1.20;;
76117;SDS011;64851;50.232;20.364;2024-02-23T04:27:58;3.10;;;0.90;;
76117;SDS011;64851;50.232;20.364;2024-02-23T04:30:53;1.30;;;0.60;;
76117;SDS011;64851;50.232;20.364;2024-02-23T04:33:28;3.20;;;1.30;;
76117;SDS011;64851;50.232;20.364;2024-02-23T04:36:23;5.70;;;2.20;;
76117;SDS011;64851;50.232;20.364;2024-02-23T04:39:18;4.20;;;1.70;;
76117;SDS011;64851;50.232;20.364;2024-02-23T04:41:53;5.70;;;1.50;;
76117;SDS011;64851;50.232;20.364;2024-02-23T04:44:41;3.20;;;1.00;;
76117;SDS011;64851;50.232;20.364;2024-02-23T04:47:17;3.10;;;1.00;;
76117;SDS011;64851;50.232;20.364;2024-02-23T04:50:12;3.50;;;1.00;;
76117;SDS011;64851;50.232;20.364;2024-02-23T04:53:07;3.00;;;1.00;;
76117;SDS011;64851;50.232;20.364;2024-02-23T04:55:42;3.30;;;1.30;;
76117;SDS011;64851;50.232;20.364;2024-02-23T04:58:37;3.60;;;1.20;;
76117;SDS011;64851;50.232;20.364;2024-02-23T05:01:38;3.00;;;1.20;;
76117;SDS011;64851;50.232;20.364;2024-02-23T05:04:33;3.00;;;1.30;;
76117;SDS011;64851;50.232;20.364;2024-02-23T05:07:08;1.90;;;1.00;;
76117;SDS011;64851;50.232;20.364;2024-02-23T05:10:03;3.30;;;1.40;;
76117;SDS011;64851;50.232;20.364;2024-02-23T05:12:45;4.60;;;1.40;;
76117;SDS011;64851;50.232;20.364;2024-02-23T05:15:27;3.10;;;1.20;;
76117;SDS011;64851;50.232;20.364;2024-02-23T05:18:08;2.70;;;1.20;;
76117;SDS011;64851;50.232;20.364;2024-02-23T05:20:56;2.30;;;1.10;;
76117;SDS011;64851;50.232;20.364;2024-02-23T05:23:30;4.70;;;1.60;;
76117;SDS011;64851;50.232;20.364;2024-02-23T05:26:18;4.00;;;1.60;;
76117;SDS011;64851;50.232;20.364;2024-02-23T05:28:59;3.90;;;1.60;;
76117;SDS011;64851;50.232;20.364;2024-02-23T05:31:45;3.00;;;1.60;;
76117;SDS011;64851;50.232;20.364;2024-02-23T05:34:27;4.60;;;1.60;;
76117;SDS011;64851;50.232;20.364;2024-02-23T05:37:16;3.40;;;1.40;;
76117;SDS011;64851;50.232;20.364;2024-02-23T05:39:57;4.80;;;2.00;;
76117;SDS011;64851;50.232;20.364;2024-02-23T05:42:48;3.50;;;1.80;;
76117;SDS011;64851;50.232;20.364;2024-02-23T05:45:22;4.30;;;1.70;;
76117;SDS011;64851;50.232;20.364;2024-02-23T05:48:10;4.70;;;2.20;;
76117;SDS011;64851;50.232;20.364;2024-02-23T05:50:52;3.20;;;1.50;;
76117;SDS011;64851;50.232;20.364;2024-02-23T05:53:33;4.40;;;2.00;;
76117;SDS011;64851;50.232;20.364;2024-02-23T05:56:15;3.80;;;1.60;;
76117;SDS011;64851;50.232;20.364;2024-02-23T05:59:11;3.50;;;1.50;;
76117;SDS011;64851;50.232;20.364;2024-02-23T06:01:46;4.10;;;2.10;;
76117;SDS011;64851;50.232;20.364;2024-02-23T06:04:39;3.70;;;1.80;;
76117;SDS011;64851;50.232;20.364;2024-02-23T06:07:15;3.00;;;1.50;;
76117;SDS011;64851;50.232;20.364;2024-02-23T06:10:16;2.90;;;1.50;;
76117;SDS011;64851;50.232;20.364;2024-02-23T06:12:51;3.10;;;1.80;;
76117;SDS011;64851;50.232;20.364;2024-02-23T06:15:43;3.80;;;1.80;;
76117;SDS011;64851;50.232;20.364;2024-02-23T06:18:18;4.80;;;2.60;;
76117;SDS011;64851;50.232;20.364;2024-02-23T06:21:13;4.80;;;2.20;;
76117;SDS011;64851;50.232;20.364;2024-02-23T06:23:52;5.10;;;2.20;;
76117;SDS011;64851;50.232;20.364;2024-02-23T06:26:40;3.70;;;1.80;;
76117;SDS011;64851;50.232;20.364;2024-02-23T06:29:36;3.90;;;2.00;;
76117;SDS011;64851;50.232;20.364;2024-02-23T06:32:11;3.80;;;2.00;;
76117;SDS011;64851;50.232;20.364;2024-02-23T06:34:59;4.00;;;1.70;;
76117;SDS011;64851;50.232;20.364;2024-02-23T06:37:34;4.00;;;2.10;;
76117;SDS011;64851;50.232;20.364;2024-02-23T06:40:22;3.30;;;1.90;;
76117;SDS011;64851;50.232;20.364;2024-02-23T06:43:19;3.60;;;1.60;;
76117;SDS011;64851;50.232;20.364;2024-02-23T06:46:03;3.10;;;2.10;;
76117;SDS011;64851;50.232;20.364;2024-02-23T06:51:34;4.50;;;2.30;;
76117;SDS011;64851;50.232;20.364;2024-02-23T06:54:09;4.70;;;2.30;;
76117;SDS011;64851;50.232;20.364;2024-02-23T06:56:58;6.00;;;2.40;;
76117;SDS011;64851;50.232;20.364;2024-02-23T06:59:32;9.00;;;2.50;;
76117;SDS011;64851;50.232;20.364;2024-02-23T07:02:20;4.50;;;2.30;;
76117;SDS011;64851;50.232;20.364;2024-02-23T07:04:54;5.50;;;2.80;;
76117;SDS011;64851;50.232;20.364;2024-02-23T07:07:51;6.30;;;2.60;;
76117;SDS011;64851;50.232;20.364;2024-02-23T07:10:46;4.50;;;2.60;;
76117;SDS011;64851;50.232;20.364;2024-02-23T07:13:21;6.30;;;3.90;;
76117;SDS011;64851;50.232;20.364;2024-02-23T07:16:09;5.80;;;3.10;;
76117;SDS011;64851;50.232;20.364;2024-02-23T07:18:44;6.50;;;2.90;;
76117;SDS011;64851;50.232;20.364;2024-02-23T07:21:39;6.70;;;2.80;;
76117;SDS011;64851;50.232;20.364;2024-02-23T07:24:34;5.40;;;2.50;;
76117;SDS011;64851;50.232;20.364;2024-02-23T07:27:15;5.50;;;2.70;;
76117;SDS011;64851;50.232;20.364;2024-02-23T07:30:03;5.00;;;2.80;;
76117;SDS011;64851;50.232;20.364;2024-02-23T07:32:40;5.20;;;2.50;;
76117;SDS011;64851;50.232;20.364;2024-02-23T07:35:35;6.90;;;3.30;;
76117;SDS011;64851;50.232;20.364;2024-02-23T07:38:30;7.40;;;3.50;;
76117;SDS011;64851;50.232;20.364;2024-02-23T07:41:05;6.40;;;3.50;;
76117;SDS011;64851;50.232;20.364;2024-02-23T07:43:56;5.70;;;3.20;;
76117;SDS011;64851;50.232;20.364;2024-02-23T07:46:37;6.70;;;4.20;;
76117;SDS011;64851;50.232;20.364;2024-02-23T07:49:25;6.70;;;3.90;;
76117;SDS011;64851;50.232;20.364;2024-02-23T07:52:02;4.70;;;2.80;;
76117;SDS011;64851;50.232;20.364;2024-02-23T07:54:51;7.00;;;3.20;;
76117;SDS011;64851;50.232;20.364;2024-02-23T07:57:33;5.90;;;3.30;;
76117;SDS011;64851;50.232;20.364;2024-02-23T08:00:14;6.50;;;3.80;;
76117;SDS011;64851;50.232;20.364;2024-02-23T08:02:58;7.30;;;3.60;;
76117;SDS011;64851;50.232;20.364;2024-02-23T08:05:41;6.80;;;4.10;;
76117;SDS011;64851;50.232;20.364;2024-02-23T08:08:22;6.00;;;3.60;;
76117;SDS011;64851;50.232;20.364;2024-02-23T08:11:14;8.40;;;3.90;;
76117;SDS011;64851;50.232;20.364;2024-02-23T08:13:49;7.10;;;4.00;;
76117;SDS011;64851;50.232;20.364;2024-02-23T08:16:38;6.80;;;3.80;;
76117;SDS011;64851;50.232;20.364;2024-02-23T08:19:12;6.60;;;3.30;;
76117;SDS011;64851;50.232;20.364;2024-02-23T08:22:00;5.80;;;3.00;;
76117;SDS011;64851;50.232;20.364;2024-02-23T08:24:41;6.30;;;3.10;;
76117;SDS011;64851;50.232;20.364;2024-02-23T08:27:23;6.90;;;3.80;;
76117;SDS011;64851;50.232;20.364;2024-02-23T08:30:05;5.10;;;2.80;;
76117;SDS011;64851;50.232;20.364;2024-02-23T08:32:49;5.40;;;3.10;;
76117;SDS011;64851;50.232;20.364;2024-02-23T08:35:30;6.10;;;3.20;;
76117;SDS011;64851;50.232;20.364;2024-02-23T08:38:14;7.70;;;3.50;;
76117;SDS011;64851;50.232;20.364;2024-02-23T08:40:56;7.20;;;3.50;;
76117;SDS011;64851;50.232;20.364;2024-02-23T08:43:45;5.00;;;3.40;;
76117;SDS011;64851;50.232;20.364;2024-02-23T08:46:21;6.30;;;3.30;;
76117;SDS011;64851;50.232;20.364;2024-02-23T08:49:09;5.30;;;3.10;;
76117;SDS011;64851;50.232;20.364;2024-02-23T08:51:43;5.40;;;2.90;;
76117;SDS011;64851;50.232;20.364;2024-02-23T08:54:31;6.20;;;3.00;;
76117;SDS011;64851;50.232;20.364;2024-02-23T08:57:06;4.80;;;2.80;;
76117;SDS011;64851;50.232;20.364;2024-02-23T08:59:58;3.90;;;2.70;;
76117;SDS011;64851;50.232;20.364;2024-02-23T09:02:33;5.80;;;2.50;;
76117;SDS011;64851;50.232;20.364;2024-02-23T09:05:23;4.90;;;3.30;;
76117;SDS011;64851;50.232;20.364;2024-02-23T09:07:58;5.60;;;3.00;;
76117;SDS011;64851;50.232;20.364;2024-02-23T09:10:46;6.30;;;3.40;;
76117;SDS011;64851;50.232;20.364;2024-02-23T09:13:27;5.00;;;3.00;;
76117;SDS011;64851;50.232;20.364;2024-02-23T09:16:09;5.50;;;3.00;;
76117;SDS011;64851;50.232;20.364;2024-02-23T09:18:50;3.90;;;2.30;;
76117;SDS011;64851;50.232;20.364;2024-02-23T09:21:38;4.20;;;2.40;;
76117;SDS011;64851;50.232;20.364;2024-02-23T09:24:13;5.80;;;3.00;;
76117;SDS011;64851;50.232;20.364;2024-02-23T09:27:02;5.50;;;2.70;;
76117;SDS011;64851;50.232;20.364;2024-02-23T09:29:37;6.10;;;3.00;;
76117;SDS011;64851;50.232;20.364;2024-02-23T09:32:32;5.60;;;2.70;;
76117;SDS011;64851;50.232;20.364;2024-02-23T09:35:07;5.70;;;2.60;;
76117;SDS011;64851;50.232;20.364;2024-02-23T09:37:55;5.00;;;2.50;;
76117;SDS011;64851;50.232;20.364;2024-02-23T09:40:30;7.50;;;3.00;;
76117;SDS011;64851;50.232;20.364;2024-02-23T09:43:19;6.80;;;3.10;;
76117;SDS011;64851;50.232;20.364;2024-02-23T09:45:56;6.00;;;2.70;;
76117;SDS011;64851;50.232;20.364;2024-02-23T09:48:44;6.30;;;3.20;;
76117;SDS011;64851;50.232;20.364;2024-02-23T09:51:20;5.90;;;2.60;;
76117;SDS011;64851;50.232;20.364;2024-02-23T09:54:08;7.70;;;3.40;;
76117;SDS011;64851;50.232;20.364;2024-02-23T09:56:47;4.50;;;2.20;;
76117;SDS011;64851;50.232;20.364;2024-02-23T09:59:35;4.50;;;2.50;;
76117;SDS011;64851;50.232;20.364;2024-02-23T10:02:13;5.80;;;2.30;;
76117;SDS011;64851;50.232;20.364;2024-02-23T10:05:02;6.00;;;2.60;;
76117;SDS011;64851;50.232;20.364;2024-02-23T10:07:37;4.80;;;2.80;;
76117;SDS011;64851;50.232;20.364;2024-02-23T10:10:35;4.80;;;2.20;;
76117;SDS011;64851;50.232;20.364;2024-02-23T10:13:12;5.30;;;2.20;;
76117;SDS011;64851;50.232;20.364;2024-02-23T10:16:01;5.00;;;2.50;;
76117;SDS011;64851;50.232;20.364;2024-02-23T10:18:42;5.10;;;2.60;;
76117;SDS011;64851;50.232;20.364;2024-02-23T10:21:37;4.70;;;2.30;;
76117;SDS011;64851;50.232;20.364;2024-02-23T10:24:32;4.80;;;2.20;;
76117;SDS011;64851;50.232;20.364;2024-02-23T10:27:20;4.50;;;2.00;;
76117;SDS011;64851;50.232;20.364;2024-02-23T10:30:16;3.70;;;1.60;;
76117;SDS011;64851;50.232;20.364;2024-02-23T10:32:51;3.40;;;2.10;;
76117;SDS011;64851;50.232;20.364;2024-02-23T10:35:47;4.30;;;2.50;;
76117;SDS011;64851;50.232;20.364;2024-02-23T10:38:32;3.70;;;1.80;;
76117;SDS011;64851;50.232;20.364;2024-02-23T10:41:21;4.10;;;1.60;;
76117;SDS011;64851;50.232;20.364;2024-02-23T10:44:04;4.20;;;1.60;;
76117;SDS011;64851;50.232;20.364;2024-02-23T10:46:53;2.60;;;1.20;;
76117;SDS011;64851;50.232;20.364;2024-02-23T10:49:29;5.60;;;1.90;;
76117;SDS011;64851;50.232;20.364;2024-02-23T10:52:19;3.30;;;1.80;;
76117;SDS011;64851;50.232;20.364;2024-02-23T10:55:02;4.50;;;2.00;;
76117;SDS011;64851;50.232;20.364;2024-02-23T10:57:44;4.50;;;1.70;;
76117;SDS011;64851;50.232;20.364;2024-02-23T11:00:26;3.80;;;2.00;;
76117;SDS011;64851;50.232;20.364;2024-02-23T11:03:15;4.30;;;1.40;;
76117;SDS011;64851;50.232;20.364;2024-02-23T11:05:51;4.40;;;2.40;;
76117;SDS011;64851;50.232;20.364;2024-02-23T11:08:42;3.70;;;1.50;;
76117;SDS011;64851;50.232;20.364;2024-02-23T11:11:16;4.00;;;1.20;;
76117;SDS011;64851;50.232;20.364;2024-02-23T11:14:08;3.10;;;1.30;;
76117;SDS011;64851;50.232;20.364;2024-02-23T11:16:45;2.20;;;1.10;;
76117;SDS011;64851;50.232;20.364;2024-02-23T11:19:40;5.10;;;1.80;;
76117;SDS011;64851;50.232;20.364;2024-02-23T11:22:15;3.80;;;1.80;;
76117;SDS011;64851;50.232;20.364;2024-02-23T11:25:20;3.70;;;1.60;;
76117;SDS011;64851;50.232;20.364;2024-02-23T11:28:25;2.80;;;1.30;;
76117;SDS011;64851;50.232;20.364;2024-02-23T11:31:21;3.20;;;1.60;;
76117;SDS011;64851;50.232;20.364;2024-02-23T11:33:58;3.10;;;1.10;;
76117;SDS011;64851;50.232;20.364;2024-02-23T11:36:53;2.30;;;1.00;;
76117;SDS011;64851;50.232;20.364;2024-02-23T11:39:28;3.00;;;1.30;;
76117;SDS011;64851;50.232;20.364;2024-02-23T11:42:17;2.60;;;1.00;;
76117;SDS011;64851;50.232;20.364;2024-02-23T11:44:52;3.00;;;1.30;;
76117;SDS011;64851;50.232;20.364;2024-02-23T11:47:40;2.30;;;0.80;;
76117;SDS011;64851;50.232;20.364;2024-02-23T11:50:15;3.80;;;1.20;;
76117;SDS011;64851;50.232;20.364;2024-02-23T11:53:04;2.60;;;1.20;;
76117;SDS011;64851;50.232;20.364;2024-02-23T11:55:45;4.00;;;1.40;;
76117;SDS011;64851;50.232;20.364;2024-02-23T11:58:27;2.40;;;1.10;;
76117;SDS011;64851;50.232;20.364;2024-02-23T12:01:08;3.80;;;1.50;;
76117;SDS011;64851;50.232;20.364;2024-02-23T12:03:50;3.70;;;1.20;;
76117;SDS011;64851;50.232;20.364;2024-02-23T12:06:31;3.20;;;1.10;;
76117;SDS011;64851;50.232;20.364;2024-02-23T12:09:12;2.20;;;1.20;;
76117;SDS011;64851;50.232;20.364;2024-02-23T12:11:53;2.40;;;1.10;;
76117;SDS011;64851;50.232;20.364;2024-02-23T12:14:41;2.50;;;1.00;;
76117;SDS011;64851;50.232;20.364;2024-02-23T12:17:36;1.90;;;0.80;;
76117;SDS011;64851;50.232;20.364;2024-02-23T12:20:12;2.50;;;1.10;;
76117;SDS011;64851;50.232;20.364;2024-02-23T12:23:02;2.70;;;0.90;;
76117;SDS011;64851;50.232;20.364;2024-02-23T12:25:37;2.80;;;1.10;;
76117;SDS011;64851;50.232;20.364;2024-02-23T12:28:25;3.90;;;1.30;;
76117;SDS011;64851;50.232;20.364;2024-02-23T12:31:00;3.90;;;1.70;;
76117;SDS011;64851;50.232;20.364;2024-02-23T12:33:49;4.20;;;1.80;;
76117;SDS011;64851;50.232;20.364;2024-02-23T12:36:25;2.80;;;1.30;;
76117;SDS011;64851;50.232;20.364;2024-02-23T12:39:22;3.60;;;1.60;;
76117;SDS011;64851;50.232;20.364;2024-02-23T12:42:18;4.90;;;1.50;;
76117;SDS011;64851;50.232;20.364;2024-02-23T12:44:55;3.00;;;1.60;;
76117;SDS011;64851;50.232;20.364;2024-02-23T12:47:42;3.50;;;1.90;;
76117;SDS011;64851;50.232;20.364;2024-02-23T12:50:17;4.20;;;2.00;;
76117;SDS011;64851;50.232;20.364;2024-02-23T12:53:05;4.30;;;1.70;;
76117;SDS011;64851;50.232;20.364;2024-02-23T12:55:40;3.10;;;1.70;;
76117;SDS011;64851;50.232;20.364;2024-02-23T12:58:35;5.40;;;2.20;;
76117;SDS011;64851;50.232;20.364;2024-02-23T13:01:30;3.30;;;1.90;;
76117;SDS011;64851;50.232;20.364;2024-02-23T13:04:12;3.30;;;1.70;;
76117;SDS011;64851;50.232;20.364;2024-02-23T13:07:00;4.40;;;2.00;;
76117;SDS011;64851;50.232;20.364;2024-02-23T13:09:35;3.40;;;1.80;;
76117;SDS011;64851;50.232;20.364;2024-02-23T13:12:30;4.40;;;2.10;;
76117;SDS011;64851;50.232;20.364;2024-02-23T13:15:05;5.10;;;2.40;;
76117;SDS011;64851;50.232;20.364;2024-02-23T13:17:57;4.40;;;2.10;;
76117;SDS011;64851;50.232;20.364;2024-02-23T13:20:32;4.90;;;2.30;;
76117;SDS011;64851;50.232;20.364;2024-02-23T13:23:29;3.50;;;2.30;;
76117;SDS011;64851;50.232;20.364;2024-02-23T13:26:24;5.50;;;2.00;;
76117;SDS011;64851;50.232;20.364;2024-02-23T13:29:19;3.40;;;2.00;;
76117;SDS011;64851;50.232;20.364;2024-02-23T13:32:14;4.80;;;2.10;;
76117;SDS011;64851;50.232;20.364;2024-02-23T13:34:49;4.20;;;2.40;;
76117;SDS011;64851;50.232;20.364;2024-02-23T13:37:44;4.70;;;2.40;;
76117;SDS011;64851;50.232;20.364;2024-02-23T13:40:39;4.80;;;2.60;;
76117;SDS011;64851;50.232;20.364;2024-02-23T13:43:14;4.70;;;2.60;;
76117;SDS011;64851;50.232;20.364;2024-02-23T13:46:02;4.60;;;2.10;;
76117;SDS011;64851;50.232;20.364;2024-02-23T13:48:38;4.70;;;1.80;;
76117;SDS011;64851;50.232;20.364;2024-02-23T13:51:26;4.80;;;2.30;;
76117;SDS011;64851;50.232;20.364;2024-02-23T13:54:01;2.60;;;1.30;;
76117;SDS011;64851;50.232;20.364;2024-02-23T13:56:49;3.80;;;2.20;;
76117;SDS011;64851;50.232;20.364;2024-02-23T13:59:24;3.70;;;1.40;;
76117;SDS011;64851;50.232;20.364;2024-02-23T14:02:12;4.00;;;1.70;;
76117;SDS011;64851;50.232;20.364;2024-02-23T14:04:47;6.40;;;2.10;;
76117;SDS011;64851;50.232;20.364;2024-02-23T14:07:42;4.10;;;1.80;;
76117;SDS011;64851;50.232;20.364;2024-02-23T14:10:38;4.30;;;1.30;;
76117;SDS011;64851;50.232;20.364;2024-02-23T14:13:14;4.80;;;1.80;;
76117;SDS011;64851;50.232;20.364;2024-02-23T14:16:02;4.50;;;2.00;;
76117;SDS011;64851;50.232;20.364;2024-02-23T14:18:38;5.20;;;2.10;;
76117;SDS011;64851;50.232;20.364;2024-02-23T14:21:26;3.50;;;1.70;;
76117;SDS011;64851;50.232;20.364;2024-02-23T14:24:07;2.90;;;1.70;;
76117;SDS011;64851;50.232;20.364;2024-02-23T14:26:55;4.40;;;1.70;;
76117;SDS011;64851;50.232;20.364;2024-02-23T14:29:50;4.80;;;2.10;;
76117;SDS011;64851;50.232;20.364;2024-02-23T14:32:25;4.20;;;2.40;;
76117;SDS011;64851;50.232;20.364;2024-02-23T14:35:14;4.80;;;2.30;;
76117;SDS011;64851;50.232;20.364;2024-02-23T14:37:49;4.80;;;2.50;;
76117;SDS011;64851;50.232;20.364;2024-02-23T14:40:37;4.70;;;2.30;;
76117;SDS011;64851;50.232;20.364;2024-02-23T14:43:12;4.60;;;1.50;;
76117;SDS011;64851;50.232;20.364;2024-02-23T14:46:07;3.30;;;1.50;;
76117;SDS011;64851;50.232;20.364;2024-02-23T14:49:02;5.20;;;1.70;;
76117;SDS011;64851;50.232;20.364;2024-02-23T14:51:37;2.50;;;1.20;;
76117;SDS011;64851;50.232;20.364;2024-02-23T14:54:27;2.90;;;1.30;;
76117;SDS011;64851;50.232;20.364;2024-02-23T14:57:02;3.00;;;1.10;;
76117;SDS011;64851;50.232;20.364;2024-02-23T14:59:50;2.90;;;1.10;;
76117;SDS011;64851;50.232;20.364;2024-02-23T15:02:25;4.50;;;1.60;;
76117;SDS011;64851;50.232;20.364;2024-02-23T15:05:13;4.30;;;1.60;;
76117;SDS011;64851;50.232;20.364;2024-02-23T15:07:48;4.40;;;1.90;;
76117;SDS011;64851;50.232;20.364;2024-02-23T15:10:36;3.30;;;1.30;;
76117;SDS011;64851;50.232;20.364;2024-02-23T15:13:11;2.90;;;1.40;;
76117;SDS011;64851;50.232;20.364;2024-02-23T15:16:06;3.50;;;1.70;;
76117;SDS011;64851;50.232;20.364;2024-02-23T15:18:40;4.00;;;1.90;;
76117;SDS011;64851;50.232;20.364;2024-02-23T15:21:35;4.50;;;1.80;;
76117;SDS011;64851;50.232;20.364;2024-02-23T15:24:30;4.00;;;1.60;;
76117;SDS011;64851;50.232;20.364;2024-02-23T15:27:05;3.60;;;1.90;;
76117;SDS011;64851;50.232;20.364;2024-02-23T15:29:53;3.40;;;2.00;;
76117;SDS011;64851;50.232;20.364;2024-02-23T15:32:28;3.70;;;1.80;;
76117;SDS011;64851;50.232;20.364;2024-02-23T15:35:17;5.20;;;1.70;;
76117;SDS011;64851;50.232;20.364;2024-02-23T15:37:52;5.50;;;1.90;;
76117;SDS011;64851;50.232;20.364;2024-02-23T15:40:40;3.90;;;1.70;;
76117;SDS011;64851;50.232;20.364;2024-02-23T15:43:15;4.20;;;1.70;;
76117;SDS011;64851;50.232;20.364;2024-02-23T15:46:03;3.10;;;1.40;;
76117;SDS011;64851;50.232;20.364;2024-02-23T15:48:38;5.10;;;1.90;;
76117;SDS011;64851;50.232;20.364;2024-02-23T15:51:34;5.50;;;2.40;;
76117;SDS011;64851;50.232;20.364;2024-02-23T15:54:39;8.40;;;3.70;;
76117;SDS011;64851;50.232;20.364;2024-02-23T15:57:14;18.00;;;14.70;;
76117;SDS011;64851;50.232;20.364;2024-02-23T16:00:02;9.60;;;8.00;;
76117;SDS011;64851;50.232;20.364;2024-02-23T16:02:39;13.70;;;11.80;;
76117;SDS011;64851;50.232;20.364;2024-02-23T16:05:34;24.60;;;20.20;;
76117;SDS011;64851;50.232;20.364;2024-02-23T16:08:40;30.60;;;21.90;;
76117;SDS011;64851;50.232;20.364;2024-02-23T16:11:16;40.30;;;30.70;;
76117;SDS011;64851;50.232;20.364;2024-02-23T16:14:05;33.70;;;19.20;;
76117;SDS011;64851;50.232;20.364;2024-02-23T16:16:43;32.10;;;18.10;;